Time;durP1;ratioP1;P1;durP2;ratioP2;P2;SDS_P1;SDS_P2;PMS_P1;PMS_P2;Temp;Humidity;BMP_temperature;BMP_pressure;BME280_temperature;BME280_humidity;BME280_pressure;Samples;Min_cycle;Max_cycle;Signal;HPM_P1;HPM_P2
2021/03/20 00:00:33;;;;;;;8.10;4.03;;;3.40;74.90;;;;;;5013361;28;20042;-61
2021/03/20 00:03:37;;;;;;;6.05;4.03;;;3.40;75.10;;;;;;5013428;28;20311;-57
2021/03/20 00:06:47;;;;;;;6.43;4.18;;;3.40;75.10;;;;;;5012745;28;20038;-60
2021/03/20 00:09:53;;;;;;;6.32;3.47;;;3.40;75.30;;;;;;5012935;28;20042;-62
2021/03/20 00:12:59;;;;;;;6.65;3.90;;;3.20;76.80;;;;;;5012576;28;20042;-58
2021/03/20 00:16:03;;;;;;;10.18;4.30;;;3.00;78.50;;;;;;5012942;28;20393;-60
2021/03/20 00:19:07;;;;;;;7.43;3.90;;;3.00;78.10;;;;;;5013227;28;20515;-59
2021/03/20 00:22:11;;;;;;;6.40;3.42;;;3.10;77.50;;;;;;5012443;28;20042;-60
2021/03/20 00:25:16;;;;;;;6.90;3.78;;;3.20;77.00;;;;;;5012640;28;20033;-59
2021/03/20 00:28:25;;;;;;;6.53;3.88;;;3.60;75.40;;;;;;5012537;28;20041;-61
2021/03/20 00:31:30;;;;;;;8.05;3.72;;;3.60;76.20;;;;;;5012250;28;20034;-60
2021/03/20 00:34:34;;;;;;;5.55;3.55;;;3.40;76.70;;;;;;5012912;28;20193;-60
2021/03/20 00:37:39;;;;;;;5.07;3.20;;;3.40;77.40;;;;;;5012523;28;20405;-58
2021/03/20 00:40:44;;;;;;;6.05;3.38;;;3.40;77.40;;;;;;5012188;28;20038;-61
2021/03/20 00:43:48;;;;;;;7.18;3.72;;;3.30;78.40;;;;;;5012667;28;20041;-61
2021/03/20 00:46:52;;;;;;;6.00;3.92;;;3.20;78.90;;;;;;5011994;28;20038;-59
2021/03/20 00:49:57;;;;;;;5.07;3.53;;;2.90;81.30;;;;;;5012506;28;20409;-58
2021/03/20 00:53:02;;;;;;;7.00;3.55;;;3.00;79.70;;;;;;4999639;28;20042;-60
2021/03/20 00:56:06;;;;;;;4.70;3.20;;;3.00;79.80;;;;;;5011782;28;20501;-61
2021/03/20 00:59:10;;;;;;;6.95;4.32;;;3.20;78.60;;;;;;5012251;28;20037;-59
2021/03/20 01:02:16;;;;;;;5.90;3.75;;;3.10;81.90;;;;;;5011637;28;20378;-60
2021/03/20 01:05:22;;;;;;;6.85;3.80;;;2.90;83.70;;;;;;4999439;28;20034;-60
2021/03/20 01:08:26;;;;;;;7.25;3.85;;;2.70;84.40;;;;;;5012096;28;20034;-59
2021/03/20 01:11:30;;;;;;;5.68;3.63;;;2.60;85.70;;;;;;5011415;28;20034;-60
2021/03/20 01:14:35;;;;;;;7.68;4.55;;;2.50;86.20;;;;;;5012468;28;20033;-60
2021/03/20 01:17:39;;;;;;;9.63;3.85;;;2.50;86.60;;;;;;5011961;28;20042;-61
2021/03/20 01:20:44;;;;;;;6.28;3.75;;;2.60;86.60;;;;;;5011821;28;20034;-60
2021/03/20 01:23:48;;;;;;;8.02;3.90;;;2.60;87.40;;;;;;5011574;28;20046;-59
2021/03/20 01:26:52;;;;;;;7.07;3.17;;;3.00;83.70;;;;;;5011837;28;20033;-60
2021/03/20 01:29:56;;;;;;;5.45;3.42;;;3.30;83.30;;;;;;5011848;28;20313;-60
2021/03/20 01:33:01;;;;;;;5.57;3.50;;;3.30;83.90;;;;;;5011327;28;20033;-60
2021/03/20 01:36:06;;;;;;;8.98;4.65;;;3.10;84.70;;;;;;5011451;28;20034;-60
2021/03/20 01:39:10;;;;;;;6.88;4.32;;;3.00;84.70;;;;;;5011339;28;20393;-59
2021/03/20 01:42:13;;;;;;;8.30;4.97;;;2.90;85.10;;;;;;5011256;28;20057;-58
2021/03/20 01:45:22;;;;;;;7.53;4.15;;;2.70;87.10;;;;;;5011700;28;20042;-61
2021/03/20 01:48:35;;;;;;;8.18;4.88;;;2.50;87.90;;;;;;5011144;28;20042;-59
2021/03/20 01:51:40;;;;;;;6.93;3.70;;;2.40;88.30;;;;;;4985713;28;20046;-59
2021/03/20 01:55:07;;;;;;;7.43;3.70;;;2.40;89.10;;;;;;5011267;28;20026;-58
2021/03/20 01:58:12;;;;;;;7.13;4.50;;;2.80;87.50;;;;;;5011691;28;20037;-60
2021/03/20 02:01:24;;;;;;;10.25;4.90;;;2.60;89.00;;;;;;5011135;28;20405;-60
2021/03/20 02:04:28;;;;;;;7.20;4.50;;;2.30;90.00;;;;;;4999314;28;20260;-58
2021/03/20 02:07:33;;;;;;;7.18;4.10;;;2.20;90.30;;;;;;5002424;28;20030;-58
2021/03/20 02:10:40;;;;;;;8.38;3.78;;;2.60;89.70;;;;;;5011463;28;20050;-61
2021/03/20 02:13:51;;;;;;;5.70;3.50;;;2.80;88.20;;;;;;5010921;28;20030;-60
2021/03/20 02:17:05;;;;;;;6.85;3.95;;;3.20;85.00;;;;;;5010030;28;20026;-61
2021/03/20 02:20:47;;;;;;;6.65;4.40;;;3.40;85.30;;;;;;5010745;28;20049;-61
2021/03/20 02:24:54;;;;;;;5.93;4.07;;;3.60;83.00;;;;;;5010114;28;20030;-56
2021/03/20 02:28:17;;;;;;;7.25;3.75;;;3.50;84.40;;;;;;4941458;28;20817;-62
2021/03/20 02:31:40;;;;;;;8.52;4.75;;;3.50;85.40;;;;;;5002014;28;20041;-61
2021/03/20 02:35:06;;;;;;;7.15;4.47;;;2.90;88.40;;;;;;5010769;28;20037;-61
2021/03/20 02:38:30;;;;;;;6.95;4.03;;;2.60;89.00;;;;;;5005892;28;20038;-60
2021/03/20 02:41:52;;;;;;;8.20;5.00;;;2.40;90.30;;;;;;5001877;28;20034;-61
2021/03/20 02:45:19;;;;;;;10.80;4.72;;;2.10;91.10;;;;;;4999391;28;20528;-61
2021/03/20 02:48:56;;;;;;;8.68;4.85;;;2.10;91.90;;;;;;5000235;28;20049;-60
2021/03/20 02:52:06;;;;;;;6.05;3.90;;;1.90;92.80;;;;;;4978222;28;20038;-61
2021/03/20 02:55:22;;;;;;;6.90;4.05;;;1.80;92.60;;;;;;5009820;28;20041;-61
2021/03/20 02:58:30;;;;;;;6.60;4.10;;;2.50;90.60;;;;;;4997871;28;20046;-60
2021/03/20 03:01:38;;;;;;;19.45;8.00;;;2.90;90.10;;;;;;5010025;28;20382;-58
2021/03/20 03:05:02;;;;;;;6.95;4.22;;;3.20;89.40;;;;;;5009849;28;20056;-58
2021/03/20 03:08:15;;;;;;;10.13;5.40;;;2.90;90.10;;;;;;4997121;28;20390;-59
2021/03/20 03:11:42;;;;;;;7.70;3.88;;;2.70;91.00;;;;;;5010230;28;20049;-60
2021/03/20 03:15:16;;;;;;;10.07;4.30;;;2.70;90.20;;;;;;5009637;28;20484;-58
2021/03/20 03:18:40;;;;;;;6.80;3.60;;;2.80;90.30;;;;;;5009675;28;20439;-60
2021/03/20 03:21:50;;;;;;;5.70;3.83;;;2.60;90.10;;;;;;5008129;28;20038;-60
2021/03/20 03:24:59;;;;;;;6.63;3.80;;;2.70;90.00;;;;;;5009155;28;20038;-60
2021/03/20 03:28:07;;;;;;;6.88;4.20;;;2.90;90.00;;;;;;5009667;28;20046;-59
2021/03/20 03:31:41;;;;;;;7.97;4.55;;;3.00;90.00;;;;;;5009264;28;20041;-61
2021/03/20 03:35:14;;;;;;;8.13;4.60;;;2.80;90.50;;;;;;5002875;28;20046;-60
2021/03/20 03:39:15;;;;;;;7.28;4.15;;;2.60;91.30;;;;;;5005378;28;20034;-61
2021/03/20 03:42:21;;;;;;;7.07;3.97;;;2.50;91.30;;;;;;4910394;29;20052;-60
2021/03/20 03:45:27;;;;;;;7.22;3.65;;;2.80;91.50;;;;;;4910773;29;20048;-60
2021/03/20 03:48:31;;;;;;;6.18;3.22;;;3.10;90.60;;;;;;4998686;28;20046;-58
2021/03/20 03:51:35;;;;;;;7.45;4.35;;;3.10;90.20;;;;;;5009438;28;20046;-59
2021/03/20 03:54:40;;;;;;;8.30;3.80;;;3.30;90.60;;;;;;5009432;28;20038;-61
2021/03/20 03:57:54;;;;;;;5.93;4.00;;;3.50;90.60;;;;;;5001671;28;20030;-61
2021/03/20 04:01:07;;;;;;;5.43;3.83;;;3.60;90.60;;;;;;4991788;28;20034;-60
2021/03/20 04:04:32;;;;;;;7.78;3.85;;;3.50;91.00;;;;;;4996572;28;20405;-60
2021/03/20 04:08:18;;;;;;;6.95;3.83;;;3.50;91.20;;;;;;4996824;28;20034;-60
2021/03/20 04:11:42;;;;;;;6.97;4.57;;;3.40;91.00;;;;;;4977824;28;20030;-59
2021/03/20 04:14:51;;;;;;;7.32;4.15;;;3.50;91.30;;;;;;5008729;28;20038;-58
2021/03/20 04:18:05;;;;;;;7.43;4.28;;;3.60;91.20;;;;;;5009230;28;20500;-62
2021/03/20 04:21:41;;;;;;;7.53;3.75;;;3.60;90.80;;;;;;5009205;28;20042;-59
2021/03/20 04:25:05;;;;;;;6.03;4.10;;;3.80;90.20;;;;;;5009251;28;20500;-60
2021/03/20 04:28:28;;;;;;;7.38;3.55;;;3.90;90.50;;;;;;5009606;28;20034;-61
2021/03/20 04:31:41;;;;;;;7.18;4.10;;;3.80;90.90;;;;;;5008725;28;20034;-61
2021/03/20 04:34:51;;;;;;;7.65;3.80;;;3.70;90.90;;;;;;5008859;28;20026;-58
2021/03/20 04:37:58;;;;;;;6.80;4.25;;;3.60;91.80;;;;;;4987945;28;20037;-61
2021/03/20 04:41:09;;;;;;;6.93;3.55;;;3.60;92.00;;;;;;5008988;28;20316;-60
2021/03/20 04:44:13;;;;;;;7.75;4.35;;;3.70;91.80;;;;;;4985815;28;20034;-60
2021/03/20 04:47:25;;;;;;;9.27;4.28;;;3.80;91.60;;;;;;5012033;28;20041;-61
2021/03/20 04:50:29;;;;;;;5.07;3.53;;;3.90;91.00;;;;;;5012133;28;20042;-61
2021/03/20 04:53:35;;;;;;;6.97;4.10;;;3.80;91.70;;;;;;5012392;28;20599;-57
2021/03/20 04:56:55;;;;;;;6.20;3.78;;;3.70;91.70;;;;;;5011396;28;20030;-61
2021/03/20 05:00:23;;;;;;;5.72;3.95;;;3.60;91.90;;;;;;5011916;28;20492;-60
2021/03/20 05:03:36;;;;;;;6.88;3.67;;;3.50;92.00;;;;;;5012131;28;20042;-60
2021/03/20 05:06:41;;;;;;;7.13;3.83;;;3.50;91.90;;;;;;4996320;28;20034;-60
2021/03/20 05:09:46;;;;;;;6.80;3.97;;;3.40;92.30;;;;;;5011813;28;20042;-59
2021/03/20 05:12:51;;;;;;;8.10;3.53;;;3.60;92.30;;;;;;5012013;28;20029;-61
2021/03/20 05:16:08;;;;;;;5.47;3.67;;;3.40;92.00;;;;;;5010996;28;20042;-59
2021/03/20 05:19:14;;;;;;;7.13;3.58;;;3.30;92.40;;;;;;5011697;28;20042;-60
2021/03/20 05:22:26;;;;;;;7.03;3.85;;;3.00;93.00;;;;;;5011782;28;20050;-59
2021/03/20 05:25:30;;;;;;;7.30;4.32;;;2.80;93.50;;;;;;5010967;28;20034;-60
2021/03/20 05:28:36;;;;;;;9.35;3.83;;;2.70;93.50;;;;;;5011839;28;20041;-59
2021/03/20 05:31:40;;;;;;;4.75;3.25;;;2.70;94.20;;;;;;5011007;28;20026;-60
2021/03/20 05:34:45;;;;;;;5.55;3.63;;;3.20;93.10;;;;;;5011500;28;20037;-59
2021/03/20 05:37:49;;;;;;;5.05;3.65;;;3.70;92.00;;;;;;5011595;28;20041;-59
2021/03/20 05:41:30;;;;;;;6.70;4.00;;;4.10;91.50;;;;;;5011513;28;20026;-60
2021/03/20 05:45:02;;;;;;;11.57;3.60;;;4.30;91.50;;;;;;5011476;28;20034;-58
2021/03/20 05:48:24;;;;;;;6.03;3.35;;;3.90;92.00;;;;;;5010987;28;20048;-59
2021/03/20 05:51:47;;;;;;;6.15;3.47;;;3.60;92.90;;;;;;5031072;23;20566;-79
2021/03/20 05:55:20;;;;;;;7.22;3.50;;;3.50;92.70;;;;;;5041836;28;20033;-79
2021/03/20 05:58:39;;;;;;;;;;;3.40;92.70;;;;;;5040606;28;20495;-80
2021/03/20 06:02:01;;;;;;;6.18;3.70;;;3.40;93.10;;;;;;5034325;28;19920;-79
2021/03/20 06:05:32;;;;;;;8.68;4.00;;;3.50;93.40;;;;;;5028387;28;20033;-78
2021/03/20 06:08:54;;;;;;;4.03;2.83;;;3.50;93.40;;;;;;5034098;28;20037;-80
2021/03/20 06:12:26;;;;;;;6.03;2.90;;;4.80;92.30;;;;;;5043545;28;20038;-79
2021/03/20 06:15:42;;;;;;;6.07;3.38;;;7.60;89.80;;;;;;5033070;28;20029;-77
2021/03/20 06:19:06;;;;;;;9.50;3.63;;;9.50;82.60;;;;;;5032776;28;20483;-78
2021/03/20 06:22:29;;;;;;;4.45;3.20;;;12.50;72.50;;;;;;5034340;28;20038;-78
2021/03/20 06:25:56;;;;;;;5.97;3.20;;;14.40;67.30;;;;;;5038105;28;20120;-78
2021/03/20 06:29:20;;;;;;;4.50;3.00;;;10.30;68.90;;;;;;5036173;28;20048;-78
2021/03/20 06:32:30;;;;;;;5.13;3.67;;;9.80;75.70;;;;;;5036577;28;20045;-78
2021/03/20 06:35:43;;;;;;;4.47;3.35;;;11.80;72.20;;;;;;5036994;28;20025;-78
2021/03/20 06:39:07;;;;;;;;;;;12.00;68.00;;;;;;5043724;28;20403;-78
2021/03/20 06:42:24;;;;;;;5.43;3.47;;;10.20;72.40;;;;;;5031041;28;19920;-78
2021/03/20 06:45:32;;;;;;;6.82;3.38;;;8.90;71.80;;;;;;5037276;28;20035;-78
2021/03/20 06:48:36;;;;;;;5.30;3.50;;;7.10;79.80;;;;;;5021528;28;20048;-77
2021/03/20 06:51:40;;;;;;;5.15;3.45;;;9.00;78.90;;;;;;5030553;28;20076;-78
2021/03/20 06:54:52;;;;;;;5.20;3.30;;;10.70;75.70;;;;;;5027148;28;20355;-78
2021/03/20 06:57:59;;;;;;;5.70;3.20;;;12.00;70.80;;;;;;5032354;28;20065;-78
2021/03/20 07:01:32;;;;;;;5.05;3.38;;;12.70;70.00;;;;;;5021229;28;20048;-78
2021/03/20 07:04:57;;;;;;;5.60;3.15;;;12.50;68.90;;;;;;5007325;28;20117;-78
2021/03/20 07:08:27;;;;;;;7.50;3.13;;;15.40;66.90;;;;;;5036413;28;20537;-78
2021/03/20 07:11:35;;;;;;;5.13;2.90;;;15.50;62.60;;;;;;5022671;28;20056;-78
2021/03/20 07:14:41;;;;;;;8.55;3.10;;;15.70;61.80;;;;;;5036936;28;20044;-78
2021/03/20 07:17:45;;;;;;;3.75;2.80;;;17.00;61.30;;;;;;5038306;28;20057;-78
2021/03/20 07:20:51;;;;;;;3.97;2.97;;;18.20;58.20;;;;;;5035500;28;20044;-78
2021/03/20 07:24:10;;;;;;;4.00;2.58;;;18.70;55.50;;;;;;5036007;28;20040;-78
2021/03/20 07:27:15;;;;;;;6.30;2.30;;;18.40;55.30;;;;;;5025931;28;20039;-78
2021/03/20 07:30:35;;;;;;;3.80;2.70;;;18.60;54.10;;;;;;5033949;28;20045;-78
2021/03/20 07:33:43;;;;;;;5.05;2.45;;;18.90;53.50;;;;;;5033106;28;20116;-78
2021/03/20 07:37:08;;;;;;;5.15;2.78;;;19.20;51.30;;;;;;5038691;28;20838;-78
2021/03/20 07:40:34;;;;;;;6.07;3.00;;;16.60;53.90;;;;;;5039398;28;20050;-78
2021/03/20 07:43:39;;;;;;;3.50;2.58;;;15.60;55.50;;;;;;5041412;28;20048;-78
2021/03/20 07:46:44;;;;;;;8.10;3.33;;;13.00;58.60;;;;;;5035575;28;20418;-78
2021/03/20 07:50:07;;;;;;;4.28;2.50;;;13.40;60.30;;;;;;5029930;28;20041;-78
2021/03/20 07:53:18;;;;;;;5.35;3.10;;;15.30;56.70;;;;;;5024180;28;20051;-78
2021/03/20 07:56:25;;;;;;;4.97;2.58;;;15.30;53.80;;;;;;5020582;28;20049;-78
2021/03/20 07:59:31;;;;;;;4.55;2.88;;;14.80;55.50;;;;;;5021344;28;20519;-78
2021/03/20 08:02:40;;;;;;;4.15;2.85;;;14.30;55.90;;;;;;5033110;28;20048;-78
2021/03/20 08:05:45;;;;;;;5.57;3.25;;;15.30;52.80;;;;;;5029267;28;20052;-78
2021/03/20 08:09:12;;;;;;;3.97;2.80;;;15.80;53.50;;;;;;5032961;28;20044;-78
2021/03/20 08:12:17;;;;;;;3.42;2.60;;;15.20;52.30;;;;;;5025852;28;20041;-78
2021/03/20 08:15:26;;;;;;;4.13;2.65;;;14.90;54.20;;;;;;5033831;28;20044;-78
2021/03/20 08:18:39;;;;;;;4.13;2.22;;;14.50;53.90;;;;;;5020805;28;20036;-77
2021/03/20 08:22:01;;;;;;;3.00;2.25;;;14.40;54.90;;;;;;5023576;28;20052;-78
2021/03/20 08:25:48;;;;;;;4.15;2.65;;;15.00;54.90;;;;;;5027821;28;20044;-78
2021/03/20 08:28:55;;;;;;;3.75;2.40;;;14.60;54.50;;;;;;5025255;28;20510;-78
2021/03/20 08:32:31;;;;;;;6.28;2.55;;;14.20;55.20;;;;;;5028927;28;20044;-78
2021/03/20 08:35:54;;;;;;;5.20;2.30;;;15.20;53.80;;;;;;5033131;28;20044;-78
2021/03/20 08:39:11;;;;;;;5.82;2.67;;;12.50;53.80;;;;;;5043217;22;20048;-60
2021/03/20 08:42:38;;;;;;;4.68;3.00;;;13.20;55.30;;;;;;5021031;28;20041;-61
2021/03/20 08:46:09;;;;;;;4.25;2.58;;;14.40;52.10;;;;;;5025205;28;20372;-60
2021/03/20 08:49:24;;;;;;;;;;;16.10;52.00;;;;;;5023156;28;20052;-61
2021/03/20 08:52:57;;;;;;;3.03;2.28;;;17.90;48.10;;;;;;5023192;28;19913;-61
2021/03/20 08:56:20;;;;;;;3.75;2.60;;;20.70;44.00;;;;;;5023561;28;20052;-60
2021/03/20 08:59:35;;;;;;;2.95;2.40;;;17.80;46.50;;;;;;5031368;28;20048;-61
2021/03/20 09:02:43;;;;;;;2.90;2.45;;;17.10;46.20;;;;;;5031043;28;20040;-61
2021/03/20 09:06:08;;;;;;;5.82;2.80;;;17.80;44.50;;;;;;5020345;28;20044;-61
2021/03/20 09:09:26;;;;;;;3.63;2.50;;;18.50;47.10;;;;;;5019286;28;20515;-61
2021/03/20 09:12:43;;;;;;;2.63;2.08;;;21.50;43.80;;;;;;5028846;28;20609;-62
2021/03/20 09:15:55;;;;;;;3.85;2.50;;;22.70;41.40;;;;;;5028579;28;20036;-62
2021/03/20 09:19:03;;;;;;;4.20;2.80;;;23.90;39.80;;;;;;5030110;28;20056;-62
2021/03/20 09:22:16;;;;;;;4.30;3.13;;;22.80;38.20;;;;;;5024737;28;20049;-61
2021/03/20 09:25:28;;;;;;;3.85;2.00;;;21.60;40.90;;;;;;5023188;28;20048;-62
2021/03/20 09:28:51;;;;;;;2.25;2.00;;;24.50;39.00;;;;;;5030282;28;20044;-62
2021/03/20 09:31:55;;;;;;;3.42;2.20;;;27.30;36.60;;;;;;5030116;28;20515;-63
2021/03/20 09:35:00;;;;;;;3.50;2.50;;;27.80;36.00;;;;;;5031672;28;20048;-61
2021/03/20 09:38:04;;;;;;;6.85;2.10;;;26.90;34.50;;;;;;5029599;28;20048;-62
2021/03/20 09:41:14;;;;;;;3.05;2.22;;;26.40;35.90;;;;;;5018532;28;20057;-62
2021/03/20 09:44:24;;;;;;;3.88;2.40;;;26.10;34.30;;;;;;5024909;28;20065;-62
2021/03/20 09:47:45;;;;;;;2.55;2.22;;;24.90;35.50;;;;;;5031418;28;20048;-62
2021/03/20 09:50:50;;;;;;;3.13;2.40;;;26.50;34.00;;;;;;5031202;28;20523;-63
2021/03/20 09:53:54;;;;;;;3.58;2.67;;;27.70;34.10;;;;;;5031586;28;20044;-62
2021/03/20 09:57:22;;;;;;;2.90;2.40;;;26.70;32.90;;;;;;5030853;28;20049;-61
2021/03/20 10:00:44;;;;;;;4.80;3.85;;;24.70;34.30;;;;;;5029219;28;20048;-61
2021/03/20 10:04:13;;;;;;;5.65;3.60;;;23.60;34.90;;;;;;5026160;28;20040;-62
2021/03/20 10:07:20;;;;;;;3.17;2.78;;;25.50;35.30;;;;;;5028718;28;20032;-62
2021/03/20 10:10:28;;;;;;;6.13;3.28;;;25.20;33.70;;;;;;5028079;28;20060;-62
2021/03/20 10:13:42;;;;;;;3.97;2.78;;;20.60;36.80;;;;;;5025599;28;20405;-62
2021/03/20 10:17:02;;;;;;;4.43;2.78;;;23.80;37.40;;;;;;5028955;28;20036;-61
2021/03/20 10:20:15;;;;;;;3.03;2.60;;;23.70;34.40;;;;;;5014837;28;20044;-62
2021/03/20 10:23:37;;;;;;;4.07;2.92;;;24.10;35.10;;;;;;5026855;28;20507;-62
2021/03/20 10:26:49;;;;;;;4.00;2.80;;;26.60;35.00;;;;;;5028206;28;20056;-62
2021/03/20 10:29:54;;;;;;;5.25;2.58;;;25.90;33.80;;;;;;5026664;28;20391;-62
2021/03/20 10:33:05;;;;;;;5.35;2.83;;;23.90;35.10;;;;;;5015652;28;20044;-60
2021/03/20 10:36:18;;;;;;;3.30;2.70;;;19.80;36.50;;;;;;5029199;28;20036;-60
2021/03/20 10:39:27;;;;;;;4.95;2.97;;;18.10;38.80;;;;;;5028003;28;20287;-60
2021/03/20 10:42:35;;;;;;;17.13;9.82;;;17.50;40.60;;;;;;5027828;28;20052;-61
2021/03/20 10:45:42;;;;;;;4.85;3.50;;;20.20;40.00;;;;;;5025471;28;20044;-61
2021/03/20 10:48:48;;;;;;;6.70;3.33;;;19.00;39.30;;;;;;5020560;28;20044;-62
2021/03/20 10:51:56;;;;;;;4.07;2.83;;;21.30;38.60;;;;;;5026441;28;20044;-62
2021/03/20 10:55:13;;;;;;;76.38;49.13;;;24.60;35.70;;;;;;5030710;28;20412;-62
2021/03/20 10:58:41;;;;;;;32.50;16.88;;;23.00;36.70;;;;;;5030226;28;20040;-61
2021/03/20 11:01:45;;;;;;;13.13;7.22;;;21.30;35.80;;;;;;5023121;28;20060;-61
2021/03/20 11:04:51;;;;;;;12.50;8.65;;;19.50;36.70;;;;;;5031563;28;20057;-61
2021/03/20 11:08:11;;;;;;;10.90;6.88;;;21.50;37.30;;;;;;5023506;28;20444;-61
2021/03/20 11:11:32;;;;;;;7.88;4.82;;;18.20;36.20;;;;;;5024519;28;20052;-60
2021/03/20 11:14:52;;;;;;;6.80;4.85;;;15.80;41.00;;;;;;5029850;28;20156;-60
2021/03/20 11:17:59;;;;;;;6.18;3.90;;;16.80;42.60;;;;;;5025896;28;20044;-60
2021/03/20 11:21:28;;;;;;;5.10;3.45;;;16.10;40.30;;;;;;5025059;28;20117;-60
2021/03/20 11:24:34;;;;;;;12.40;4.70;;;15.70;42.10;;;;;;5031380;28;20040;-61
2021/03/20 11:27:40;;;;;;;5.60;4.15;;;17.30;41.40;;;;;;5025508;28;20056;-61
2021/03/20 11:30:51;;;;;;;3.83;3.28;;;20.50;40.20;;;;;;5024115;28;20075;-61
2021/03/20 11:33:55;;;;;;;6.70;3.72;;;21.80;38.80;;;;;;5026591;28;20044;-61
2021/03/20 11:37:01;;;;;;;5.72;3.65;;;20.00;37.60;;;;;;5023543;28;20072;-61
2021/03/20 11:40:08;;;;;;;6.10;4.07;;;19.30;38.90;;;;;;5027537;28;20048;-61
2021/03/20 11:43:25;;;;;;;5.03;3.65;;;20.40;38.70;;;;;;5024429;28;20049;-61
2021/03/20 11:46:37;;;;;;;4.38;3.45;;;21.00;37.10;;;;;;5031826;28;20048;-62
2021/03/20 11:49:54;;;;;;;3.92;3.30;;;20.40;37.00;;;;;;5041209;28;20055;-61
2021/03/20 11:53:03;;;;;;;4.15;3.30;;;20.40;37.10;;;;;;5010627;28;20040;-61
2021/03/20 11:56:21;;;;;;;5.40;3.75;;;21.10;36.00;;;;;;5020510;28;20036;-61
2021/03/20 11:59:39;;;;;;;4.78;4.05;;;19.20;39.90;;;;;;5026344;28;20405;-61
2021/03/20 12:02:44;;;;;;;5.68;4.05;;;19.90;38.10;;;;;;5025638;28;20048;-61
2021/03/20 12:05:51;;;;;;;5.40;4.03;;;20.50;37.70;;;;;;5020029;28;21087;-61
2021/03/20 12:09:00;;;;;;;8.38;3.72;;;17.60;39.90;;;;;;5033848;28;20036;-61
2021/03/20 12:12:07;;;;;;;6.13;4.20;;;18.80;39.80;;;;;;5029898;28;20060;-61
2021/03/20 12:15:51;;;;;;;8.00;3.75;;;18.70;38.80;;;;;;5028588;28;20048;-61
2021/03/20 12:19:14;;;;;;;5.95;3.80;;;18.20;39.70;;;;;;5028393;28;20060;-61
2021/03/20 12:22:33;;;;;;;5.75;4.28;;;18.80;41.10;;;;;;5030366;28;20040;-61
2021/03/20 12:25:56;;;;;;;5.70;4.53;;;19.50;39.20;;;;;;5029268;28;20033;-61
2021/03/20 12:29:26;;;;;;;6.28;4.75;;;19.70;38.30;;;;;;5029051;28;20033;-62
2021/03/20 12:32:36;;;;;;;5.28;4.03;;;20.40;38.50;;;;;;5028928;28;20705;-62
2021/03/20 12:35:50;;;;;;;6.45;3.97;;;21.80;38.10;;;;;;5027585;28;20568;-62
2021/03/20 12:38:56;;;;;;;7.35;4.57;;;20.30;38.00;;;;;;5027521;28;20052;-61
2021/03/20 12:42:01;;;;;;;5.95;4.78;;;18.90;40.00;;;;;;5028163;28;20048;-62
2021/03/20 12:45:09;;;;;;;6.68;3.90;;;19.10;38.70;;;;;;5023355;28;20041;-62
2021/03/20 12:48:14;;;;;;;5.13;4.43;;;20.50;38.30;;;;;;5015522;28;20044;-61
2021/03/20 12:51:23;;;;;;;7.13;4.85;;;21.20;36.60;;;;;;5026878;28;20044;-61
2021/03/20 12:54:33;;;;;;;5.72;4.00;;;19.00;37.80;;;;;;5030756;28;20032;-61
2021/03/20 12:57:37;;;;;;;5.82;4.00;;;18.50;39.30;;;;;;5028731;28;20503;-61
2021/03/20 13:00:41;;;;;;;4.70;4.15;;;17.20;38.30;;;;;;5028418;28;20411;-61
2021/03/20 13:03:47;;;;;;;6.35;4.32;;;17.20;40.80;;;;;;5026093;28;20044;-62
2021/03/20 13:06:53;;;;;;;5.15;3.92;;;18.50;39.70;;;;;;5033524;28;20036;-61
2021/03/20 13:09:57;;;;;;;5.15;4.00;;;17.40;38.80;;;;;;5037641;28;20044;-60
2021/03/20 13:13:03;;;;;;;5.72;4.00;;;16.80;39.60;;;;;;5033074;28;20053;-61
2021/03/20 13:16:09;;;;;;;5.43;3.92;;;16.40;40.30;;;;;;5022950;28;20056;-61
2021/03/20 13:19:16;;;;;;;7.30;4.30;;;16.90;39.40;;;;;;5028016;28;20040;-62
2021/03/20 13:22:20;;;;;;;7.85;4.50;;;18.50;40.00;;;;;;5026489;28;20048;-61
2021/03/20 13:25:30;;;;;;;6.95;5.28;;;19.80;38.30;;;;;;5025252;28;20514;-62
2021/03/20 13:28:35;;;;;;;6.63;5.00;;;19.20;39.50;;;;;;5029442;28;20040;-61
2021/03/20 13:31:40;;;;;;;7.03;4.60;;;17.10;40.70;;;;;;5028227;28;20044;-61
2021/03/20 13:34:45;;;;;;;6.15;4.43;;;16.10;42.20;;;;;;5028604;28;20040;-61
2021/03/20 13:37:50;;;;;;;8.20;4.65;;;15.10;43.40;;;;;;5030007;28;20040;-61
2021/03/20 13:40:55;;;;;;;4.28;3.88;;;14.80;44.30;;;;;;5027258;28;20045;-61
2021/03/20 13:44:00;;;;;;;6.05;3.97;;;15.90;41.20;;;;;;5032331;28;20048;-60
2021/03/20 13:47:05;;;;;;;5.03;3.75;;;15.70;39.20;;;;;;5034389;28;20043;-60
2021/03/20 13:50:11;;;;;;;5.70;4.10;;;16.10;40.70;;;;;;5035289;28;20411;-60
2021/03/20 13:53:20;;;;;;;6.32;3.80;;;15.90;41.00;;;;;;5027298;28;20032;-60
2021/03/20 13:56:25;;;;;;;5.43;3.83;;;14.40;41.70;;;;;;5013806;28;20040;-59
2021/03/20 13:59:30;;;;;;;7.05;4.07;;;13.20;43.80;;;;;;5026503;28;20057;-60
2021/03/20 14:02:35;;;;;;;6.60;3.80;;;12.50;44.30;;;;;;5030960;28;20052;-59
2021/03/20 14:05:40;;;;;;;5.90;4.05;;;13.20;45.50;;;;;;5030506;28;20506;-61
2021/03/20 14:08:44;;;;;;;5.15;3.75;;;14.60;44.00;;;;;;5017112;28;20055;-60
2021/03/20 14:11:49;;;;;;;4.82;3.53;;;15.10;42.80;;;;;;5034944;28;20454;-61
2021/03/20 14:14:56;;;;;;;7.28;3.38;;;15.90;43.10;;;;;;5033333;28;20036;-61
2021/03/20 14:18:00;;;;;;;6.10;3.33;;;16.60;42.10;;;;;;5026234;28;20760;-61
2021/03/20 14:21:07;;;;;;;3.72;2.78;;;16.70;42.10;;;;;;5025523;28;20585;-60
2021/03/20 14:24:12;;;;;;;6.55;3.80;;;16.60;42.70;;;;;;5031000;28;20604;-60
2021/03/20 14:27:16;;;;;;;5.50;3.60;;;17.10;43.40;;;;;;5029454;28;20040;-61
2021/03/20 14:30:24;;;;;;;4.68;3.20;;;16.20;43.00;;;;;;5033865;28;20039;-60
2021/03/20 14:33:30;;;;;;;5.00;3.53;;;14.70;43.70;;;;;;5030652;28;20037;-61
2021/03/20 14:36:34;;;;;;;8.25;3.13;;;15.30;43.60;;;;;;5028883;28;20041;-60
2021/03/20 14:39:39;;;;;;;6.70;3.88;;;14.70;42.80;;;;;;5023532;28;20041;-60
2021/03/20 14:42:43;;;;;;;7.07;3.08;;;13.00;44.70;;;;;;5034172;28;20044;-59
2021/03/20 14:45:50;;;;;;;4.38;3.00;;;11.10;47.00;;;;;;5031346;28;20045;-60
2021/03/20 14:48:55;;;;;;;4.65;2.72;;;11.20;48.60;;;;;;5028046;28;20043;-59
2021/03/20 14:51:59;;;;;;;4.93;2.92;;;11.30;48.60;;;;;;5015004;28;20052;-60
2021/03/20 14:55:05;;;;;;;6.57;3.53;;;11.20;50.40;;;;;;5028709;28;20036;-59
2021/03/20 14:58:09;;;;;;;5.47;2.92;;;10.80;51.10;;;;;;5026978;28;20037;-58
2021/03/20 15:01:14;;;;;;;7.20;3.80;;;10.20;51.60;;;;;;5016272;28;20640;-59
2021/03/20 15:04:18;;;;;;;9.20;3.78;;;9.80;52.20;;;;;;5018778;28;20036;-60
2021/03/20 15:07:23;;;;;;;9.85;4.72;;;9.60;52.20;;;;;;5024498;28;20413;-57
2021/03/20 15:10:34;;;;;;;7.43;3.40;;;9.50;53.10;;;;;;5024926;28;20041;-59
2021/03/20 15:13:38;;;;;;;5.60;3.63;;;9.60;54.20;;;;;;5026453;28;20033;-61
2021/03/20 15:16:43;;;;;;;5.28;3.42;;;10.00;55.10;;;;;;5028520;28;20484;-59
2021/03/20 15:19:48;;;;;;;8.77;3.60;;;9.20;56.90;;;;;;5028153;28;20511;-60
2021/03/20 15:22:53;;;;;;;13.95;3.70;;;8.60;59.70;;;;;;5012414;28;20029;-60
2021/03/20 15:25:57;;;;;;;7.00;4.05;;;8.50;59.90;;;;;;5026398;28;20044;-61
2021/03/20 15:29:02;;;;;;;7.55;4.43;;;8.50;58.20;;;;;;5027461;28;20041;-59
2021/03/20 15:32:07;;;;;;;10.85;3.97;;;8.60;56.90;;;;;;5020055;28;20661;-59
2021/03/20 15:35:11;;;;;;;6.68;3.40;;;8.50;56.40;;;;;;5028384;28;20049;-60
2021/03/20 15:38:20;;;;;;;6.38;3.47;;;8.60;57.30;;;;;;5022848;28;20037;-59
2021/03/20 15:41:25;;;;;;;6.38;3.63;;;8.30;58.00;;;;;;5028489;28;20045;-58
2021/03/20 15:44:30;;;;;;;9.10;5.00;;;8.70;56.60;;;;;;5027706;28;20361;-59
2021/03/20 15:47:35;;;;;;;10.43;4.63;;;9.00;56.50;;;;;;5027570;28;20507;-60
2021/03/20 15:50:45;;;;;;;7.90;3.13;;;9.00;56.70;;;;;;5026614;28;20040;-60
2021/03/20 15:53:50;;;;;;;9.70;6.65;;;8.60;53.80;;;;;;5011689;28;20025;-60
2021/03/20 15:56:55;;;;;;;6.35;4.55;;;8.50;54.70;;;;;;5019199;28;20479;-60
2021/03/20 15:59:58;;;;;;;9.30;5.05;;;8.50;55.00;;;;;;5017931;28;20052;-60
2021/03/20 16:03:03;;;;;;;9.27;5.03;;;8.70;54.20;;;;;;5014357;28;20041;-60
2021/03/20 16:06:10;;;;;;;5.47;3.72;;;9.00;55.00;;;;;;5020715;28;20049;-59
2021/03/20 16:09:14;;;;;;;7.20;2.90;;;8.90;53.40;;;;;;5020848;28;20030;-59
2021/03/20 16:12:20;;;;;;;6.93;3.63;;;8.70;54.10;;;;;;5012513;28;20034;-60
2021/03/20 16:15:25;;;;;;;5.72;3.63;;;8.70;54.70;;;;;;5021640;28;20037;-60
2021/03/20 16:18:30;;;;;;;7.65;4.10;;;8.50;54.10;;;;;;5023769;28;20042;-60
2021/03/20 16:21:35;;;;;;;6.95;3.58;;;8.70;53.90;;;;;;5017892;28;20045;-60
2021/03/20 16:24:39;;;;;;;7.20;3.70;;;8.50;52.30;;;;;;5017446;28;20033;-60
2021/03/20 16:27:43;;;;;;;5.43;2.95;;;8.40;53.60;;;;;;5015446;28;20050;-60
2021/03/20 16:30:49;;;;;;;9.55;4.80;;;8.30;52.50;;;;;;5019439;28;20049;-60
2021/03/20 16:33:54;;;;;;;4.30;3.30;;;8.30;52.50;;;;;;5013960;28;20496;-61
2021/03/20 16:37:02;;;;;;;6.72;2.78;;;8.30;51.50;;;;;;5021940;28;20037;-60
2021/03/20 16:40:08;;;;;;;6.15;4.10;;;8.10;52.30;;;;;;5028672;28;20655;-60
2021/03/20 16:43:14;;;;;;;7.75;4.85;;;8.00;52.80;;;;;;5032945;28;20033;-60
2021/03/20 16:46:19;;;;;;;8.52;5.47;;;8.00;53.40;;;;;;5031088;28;20029;-60